Time;durP1;ratioP1;P1;durP2;ratioP2;P2;SDS_P1;SDS_P2;PMS_P1;PMS_P2;Temp;Humidity;BMP_temperature;BMP_pressure;BME280_temperature;BME280_humidity;BME280_pressure;Samples;Min_cycle;Max_cycle;Signal;HPM_P1;HPM_P2
2022/04/16 00:01:52;;;;;;;17.80;11.83;;;14.50;91.00;;;;;;4976410;28;20215;-90
2022/04/16 00:04:18;;;;;;;16.20;12.27;;;14.40;91.30;;;;;;4976475;28;20184;-91
2022/04/16 00:06:44;;;;;;;14.23;11.80;;;14.00;91.90;;;;;;4976562;28;20164;-90
2022/04/16 00:09:10;;;;;;;16.10;12.23;;;14.20;92.10;;;;;;4979120;28;20722;-90
2022/04/16 00:11:37;;;;;;;16.20;12.10;;;14.20;92.20;;;;;;4980135;28;20169;-91
2022/04/16 00:14:03;;;;;;;16.70;12.40;;;14.10;92.30;;;;;;4979950;28;20301;-90
2022/04/16 00:16:29;;;;;;;15.87;11.87;;;14.10;92.30;;;;;;4979987;28;20612;-90
2022/04/16 00:18:58;;;;;;;16.97;12.67;;;13.90;93.00;;;;;;4979780;28;20166;-90
2022/04/16 00:21:24;;;;;;;16.17;12.20;;;13.90;93.00;;;;;;4994549;28;20169;-90
2022/04/16 00:23:52;;;;;;;16.83;12.40;;;13.80;93.00;;;;;;4999284;28;20162;-91
2022/04/16 00:26:20;;;;;;;16.00;12.80;;;14.00;92.90;;;;;;4985822;28;20177;-91
2022/04/16 00:28:46;;;;;;;17.40;12.87;;;14.10;92.60;;;;;;4979780;28;20592;-91
2022/04/16 00:31:14;;;;;;;20.53;13.23;;;14.20;92.40;;;;;;4979921;28;20323;-91
2022/04/16 00:33:39;;;;;;;15.80;12.87;;;14.00;92.60;;;;;;4979638;28;20219;-90
2022/04/16 00:36:05;;;;;;;18.00;12.87;;;14.00;92.70;;;;;;4979914;28;20176;-91
2022/04/16 00:38:31;;;;;;;17.93;12.87;;;13.90;92.90;;;;;;4979422;28;20179;-91
2022/04/16 00:40:56;;;;;;;17.17;12.90;;;13.70;93.40;;;;;;4979738;28;20185;-91
2022/04/16 00:43:27;;;;;;;16.73;12.90;;;13.90;93.30;;;;;;4979613;28;20168;-91
2022/04/16 00:45:54;;;;;;;17.47;13.37;;;13.70;93.40;;;;;;4979689;28;20184;-91
2022/04/16 00:48:22;;;;;;;19.00;12.90;;;13.70;93.80;;;;;;4979673;28;20180;-91
2022/04/16 00:50:51;;;;;;;16.77;12.83;;;13.60;93.70;;;;;;4979198;28;20181;-91
2022/04/16 00:53:17;;;;;;;18.87;14.00;;;13.50;94.30;;;;;;4979423;28;20197;-91
2022/04/16 00:55:43;;;;;;;19.70;13.43;;;13.60;94.30;;;;;;4984918;28;20222;-91
2022/04/16 00:58:09;;;;;;;20.47;13.97;;;13.40;94.60;;;;;;4998734;28;20177;-91
2022/04/16 01:00:35;;;;;;;19.20;13.80;;;13.70;94.10;;;;;;4999015;28;20210;-90
2022/04/16 01:03:02;;;;;;;16.63;13.03;;;13.30;94.60;;;;;;4998813;28;20639;-91
2022/04/16 01:05:28;;;;;;;17.97;13.50;;;13.20;95.40;;;;;;4998568;28;20202;-91
2022/04/16 01:07:59;;;;;;;17.30;13.03;;;13.40;95.00;;;;;;4998766;28;20181;-91
2022/04/16 01:10:27;;;;;;;18.07;13.87;;;13.30;95.40;;;;;;4998626;28;20175;-91
2022/04/16 01:12:57;;;;;;;19.23;13.60;;;13.40;95.10;;;;;;4998352;28;20206;-91
2022/04/16 01:15:24;;;;;;;19.63;14.10;;;13.30;95.10;;;;;;4998441;28;20198;-91
2022/04/16 01:17:51;;;;;;;20.87;13.97;;;13.30;95.50;;;;;;4998662;28;20172;-91
2022/04/16 01:20:18;;;;;;;19.30;13.70;;;13.20;95.60;;;;;;4997696;28;20176;-91
2022/04/16 01:22:48;;;;;;;19.70;14.43;;;13.10;95.70;;;;;;4998525;28;20168;-91
2022/04/16 01:25:14;;;;;;;21.07;14.30;;;12.80;96.50;;;;;;4997019;28;20203;-91
2022/04/16 01:27:45;;;;;;;19.97;14.43;;;13.00;96.30;;;;;;4978772;28;20171;-91
2022/04/16 01:30:17;;;;;;;21.13;14.90;;;12.90;96.60;;;;;;4979673;28;20678;-91
2022/04/16 01:32:42;;;;;;;22.57;15.80;;;12.90;96.60;;;;;;4978992;28;20196;-91
2022/04/16 01:35:09;;;;;;;19.97;14.53;;;12.90;96.60;;;;;;4978657;28;20174;-90
2022/04/16 01:37:35;;;;;;;23.63;14.93;;;12.80;97.10;;;;;;4978691;28;20252;-91
2022/04/16 01:40:07;;;;;;;19.10;14.60;;;12.70;97.20;;;;;;4994204;28;20199;-91
2022/04/16 01:42:33;;;;;;;18.50;14.47;;;12.70;97.70;;;;;;4998687;28;20170;-91
2022/04/16 01:45:02;;;;;;;19.47;14.10;;;12.50;98.00;;;;;;5001365;28;20167;-91
2022/04/16 01:47:28;;;;;;;19.30;14.50;;;12.80;97.70;;;;;;4983974;28;20176;-91
2022/04/16 01:49:55;;;;;;;20.00;14.90;;;12.90;97.70;;;;;;4981134;28;20605;-91
2022/04/16 01:52:24;;;;;;;19.13;14.90;;;12.60;98.10;;;;;;4978632;28;20563;-91
2022/04/16 01:54:51;;;;;;;24.70;15.27;;;12.30;98.80;;;;;;4978207;28;20198;-91
2022/04/16 01:57:20;;;;;;;19.13;14.93;;;12.20;99.80;;;;;;4991707;28;20183;-91
2022/04/16 01:59:46;;;;;;;18.60;13.47;;;12.10;99.90;;;;;;4998153;28;20624;-91
2022/04/16 02:02:13;;;;;;;19.83;14.73;;;12.10;99.90;;;;;;4997707;28;20191;-91
2022/04/16 02:04:39;;;;;;;19.90;15.03;;;12.20;99.90;;;;;;4997607;28;20175;-91
2022/04/16 02:07:05;;;;;;;22.03;14.67;;;12.20;99.90;;;;;;4997555;28;20637;-91
2022/04/16 02:09:31;;;;;;;23.17;16.10;;;12.30;99.90;;;;;;4997813;28;20183;-91
2022/04/16 02:11:56;;;;;;;21.53;14.30;;;12.30;99.90;;;;;;4998560;28;20262;-91
2022/04/16 02:14:22;;;;;;;18.23;13.90;;;12.10;99.90;;;;;;4998207;28;20165;-90
2022/04/16 02:16:48;;;;;;;20.27;15.20;;;12.20;99.90;;;;;;5000171;28;20174;-91
2022/04/16 02:19:14;;;;;;;18.60;14.07;;;12.00;99.90;;;;;;4999378;28;20167;-91
2022/04/16 02:21:41;;;;;;;20.30;15.07;;;12.20;99.90;;;;;;4997652;28;20166;-90
2022/04/16 02:24:10;;;;;;;23.13;15.17;;;12.10;99.90;;;;;;4998022;28;20193;-91
2022/04/16 02:26:36;;;;;;;18.53;14.20;;;12.20;99.90;;;;;;4984323;28;20635;-91
2022/04/16 02:29:02;;;;;;;19.83;14.67;;;12.30;99.90;;;;;;4979849;28;20216;-91
2022/04/16 02:31:27;;;;;;;20.83;15.10;;;12.00;99.90;;;;;;4987400;28;20212;-91
2022/04/16 02:33:56;;;;;;;20.77;15.00;;;12.00;99.90;;;;;;4995120;28;20284;-90
2022/04/16 02:36:25;;;;;;;19.93;15.70;;;11.90;99.90;;;;;;4986028;28;20193;-91
2022/04/16 02:38:54;;;;;;;17.73;13.83;;;11.80;99.90;;;;;;4979520;28;20171;-91
2022/04/16 02:41:21;;;;;;;20.13;15.03;;;11.70;99.90;;;;;;4977846;28;20169;-91
2022/04/16 02:43:47;;;;;;;19.50;14.27;;;11.80;99.90;;;;;;4977549;28;20582;-91
2022/04/16 02:48:58;;;;;;;20.97;15.03;;;12.00;99.90;;;;;;5006909;28;20252;-91
2022/04/16 02:51:24;;;;;;;18.27;14.20;;;12.10;99.90;;;;;;4996938;28;20216;-91
2022/04/16 02:53:50;;;;;;;20.60;15.63;;;12.00;99.90;;;;;;4996821;28;20205;-91
2022/04/16 02:56:15;;;;;;;21.67;15.07;;;12.00;99.90;;;;;;4996656;28;20159;-91
2022/04/16 02:58:41;;;;;;;23.00;15.73;;;12.00;99.90;;;;;;4995988;28;20208;-91
2022/04/16 03:01:07;;;;;;;22.97;15.07;;;12.10;99.90;;;;;;4996757;28;20639;-90
2022/04/16 03:03:34;;;;;;;19.67;15.03;;;12.00;99.90;;;;;;4996502;28;20167;-91
2022/04/16 03:05:59;;;;;;;21.40;15.20;;;12.00;99.90;;;;;;4996758;28;20178;-91
2022/04/16 03:08:25;;;;;;;20.43;15.90;;;12.00;99.90;;;;;;4990218;28;20247;-92
2022/04/16 03:10:57;;;;;;;22.13;15.83;;;11.90;99.90;;;;;;4977397;28;20217;-91
2022/04/16 03:13:22;;;;;;;23.07;14.53;;;11.80;99.90;;;;;;4977318;28;20195;-91
2022/04/16 03:18:32;;;;;;;19.93;14.87;;;11.80;99.90;;;;;;5001225;28;20699;-92
2022/04/16 03:20:59;;;;;;;21.13;15.80;;;11.90;99.90;;;;;;4996538;28;20252;-91
2022/04/16 03:23:25;;;;;;;21.23;15.07;;;12.00;99.90;;;;;;4996932;28;20184;-92
2022/04/16 03:25:53;;;;;;;20.30;15.17;;;11.90;99.90;;;;;;4986340;28;20589;-91
2022/04/16 03:28:19;;;;;;;21.03;16.00;;;12.10;99.90;;;;;;4978460;28;20267;-90
2022/04/16 03:30:44;;;;;;;24.10;16.50;;;12.00;99.90;;;;;;4979147;28;20178;-91
2022/04/16 03:33:10;;;;;;;23.50;16.40;;;12.00;99.90;;;;;;4980081;28;20214;-91
2022/04/16 03:35:36;;;;;;;20.43;16.27;;;12.00;99.90;;;;;;4987383;28;20607;-91
2022/04/16 03:38:02;;;;;;;22.93;16.30;;;11.90;99.90;;;;;;4988047;28;20636;-91
2022/04/16 03:40:28;;;;;;;23.40;16.60;;;11.90;99.90;;;;;;4984531;28;20162;-91
2022/04/16 03:42:57;;;;;;;24.60;17.43;;;11.90;99.90;;;;;;4986641;28;20623;-91
2022/04/16 03:45:31;;;;;;;23.27;16.70;;;11.90;99.90;;;;;;4993670;28;20228;-92
2022/04/16 03:47:59;;;;;;;24.07;17.30;;;11.80;99.90;;;;;;5003997;28;20529;-91
2022/04/16 03:50:26;;;;;;;26.57;17.60;;;11.80;99.90;;;;;;5000302;28;20184;-91
2022/04/16 03:52:53;;;;;;;23.47;16.27;;;11.70;99.90;;;;;;5000212;28;20202;-91
2022/04/16 04:00:51;;;;;;;24.47;17.50;;;11.70;99.90;;;;;;4997659;28;20272;-91
2022/04/16 04:03:18;;;;;;;29.73;18.13;;;11.70;99.90;;;;;;4980484;28;20222;-91
2022/04/16 04:05:48;;;;;;;25.97;18.33;;;11.90;99.90;;;;;;4986551;28;20168;-91
2022/04/16 04:08:15;;;;;;;26.03;18.47;;;12.00;99.90;;;;;;4999807;28;20165;-91
2022/04/16 04:10:40;;;;;;;24.90;18.13;;;11.80;99.90;;;;;;4999992;28;20165;-91
2022/04/16 04:13:06;;;;;;;27.57;18.97;;;12.00;99.90;;;;;;4999583;28;20193;-90
2022/04/16 04:15:32;;;;;;;25.63;18.87;;;11.90;99.90;;;;;;4998656;28;20613;-91
2022/04/16 04:18:01;;;;;;;25.67;18.50;;;11.80;99.90;;;;;;4979973;28;20248;-91
2022/04/16 04:20:28;;;;;;;27.53;18.57;;;11.60;99.90;;;;;;4980088;28;20240;-91
2022/04/16 04:22:53;;;;;;;26.23;19.17;;;11.50;99.90;;;;;;4980130;28;20170;-91
2022/04/16 04:25:19;;;;;;;29.77;19.93;;;11.60;99.90;;;;;;4984153;28;20587;-91
2022/04/16 04:27:45;;;;;;;31.00;18.70;;;11.70;99.90;;;;;;4999383;28;20173;-91
2022/04/16 04:30:12;;;;;;;32.30;20.57;;;11.60;99.90;;;;;;4998951;28;20185;-90
2022/04/16 04:32:38;;;;;;;28.77;18.50;;;11.50;99.90;;;;;;4998439;28;20205;-91
2022/04/16 04:35:04;;;;;;;27.67;19.13;;;11.50;99.90;;;;;;4999630;28;20260;-91
2022/04/16 04:37:30;;;;;;;29.87;18.23;;;11.40;99.90;;;;;;4999333;28;20214;-90
2022/04/16 04:39:56;;;;;;;27.47;19.07;;;11.40;99.90;;;;;;4998960;28;20161;-91
2022/04/16 04:42:32;;;;;;;27.67;20.30;;;11.40;99.90;;;;;;4998575;28;20177;-91
2022/04/16 04:44:59;;;;;;;26.37;19.20;;;11.30;99.90;;;;;;4999044;28;20214;-91
2022/04/16 04:47:25;;;;;;;28.10;19.00;;;11.40;99.90;;;;;;4999124;28;20172;-90
2022/04/16 04:49:50;;;;;;;28.73;19.33;;;11.30;99.90;;;;;;4998963;28;20532;-91
2022/04/16 04:52:26;;;;;;;27.10;18.80;;;11.30;99.90;;;;;;4998085;28;20599;-91
2022/04/16 04:54:53;;;;;;;29.50;20.83;;;11.20;99.90;;;;;;4997613;28;20165;-91
2022/04/16 04:57:19;;;;;;;28.57;19.90;;;11.50;99.90;;;;;;4998574;28;20657;-90
2022/04/16 04:59:44;;;;;;;27.50;19.57;;;11.50;99.90;;;;;;4998361;28;20177;-90
2022/04/16 05:02:10;;;;;;;29.73;19.77;;;11.30;99.90;;;;;;4990939;28;20273;-91
2022/04/16 05:04:36;;;;;;;27.27;19.00;;;11.20;99.90;;;;;;4979040;28;20162;-91
2022/04/16 05:07:03;;;;;;;38.50;21.37;;;11.20;99.90;;;;;;4979126;28;20167;-91
2022/04/16 05:09:29;;;;;;;25.80;18.93;;;11.30;99.90;;;;;;4981823;28;20173;-91
2022/04/16 05:11:55;;;;;;;30.80;20.30;;;11.40;99.90;;;;;;4997713;28;20165;-91
2022/04/16 05:14:21;;;;;;;26.97;19.77;;;11.40;99.90;;;;;;4998197;28;20173;-91
2022/04/16 05:16:47;;;;;;;30.50;20.23;;;11.40;99.90;;;;;;4998587;28;20165;-90
2022/04/16 05:19:14;;;;;;;29.50;21.67;;;11.40;99.90;;;;;;4998675;28;20176;-92
2022/04/16 05:21:40;;;;;;;28.10;20.13;;;11.40;99.90;;;;;;4995905;28;20173;-90
2022/04/16 05:24:06;;;;;;;33.10;20.17;;;11.40;99.90;;;;;;4978731;28;20190;-91
2022/04/16 05:26:33;;;;;;;30.40;20.33;;;11.30;99.90;;;;;;4978684;28;20166;-91
2022/04/16 05:28:58;;;;;;;26.43;19.27;;;11.40;99.90;;;;;;4978613;28;20253;-91
2022/04/16 05:31:26;;;;;;;27.83;19.93;;;11.40;99.90;;;;;;4978567;28;20178;-91
2022/04/16 05:36:39;;;;;;;32.30;20.27;;;11.50;99.90;;;;;;5015522;28;20266;-91
2022/04/16 05:39:05;;;;;;;26.70;19.60;;;11.60;99.90;;;;;;4998098;28;20192;-91
2022/04/16 05:41:33;;;;;;;28.20;19.97;;;11.80;99.90;;;;;;4997707;28;20178;-91
2022/04/16 05:43:59;;;;;;;26.57;19.33;;;11.70;99.90;;;;;;4978669;28;20198;-91
2022/04/16 05:46:25;;;;;;;27.37;20.17;;;11.70;99.90;;;;;;4978066;28;20197;-90
2022/04/16 05:48:50;;;;;;;28.40;20.03;;;11.80;99.90;;;;;;4978567;28;20210;-91
2022/04/16 05:51:16;;;;;;;25.43;17.87;;;11.80;99.90;;;;;;4989069;28;20197;-89
2022/04/16 05:53:42;;;;;;;26.70;20.27;;;11.80;99.90;;;;;;4980889;28;20268;-90
2022/04/16 05:56:09;;;;;;;29.70;20.20;;;11.90;99.90;;;;;;4977950;28;20174;-90
2022/04/16 05:58:36;;;;;;;30.97;21.13;;;11.70;99.90;;;;;;4978315;28;20613;-91
2022/04/16 06:01:03;;;;;;;30.03;21.40;;;11.80;99.90;;;;;;4978942;28;20164;-91
2022/04/16 06:03:30;;;;;;;30.87;21.10;;;11.90;99.90;;;;;;4992090;28;20173;-91
2022/04/16 06:05:56;;;;;;;28.53;20.07;;;11.80;99.90;;;;;;4997218;28;20163;-91
2022/04/16 06:08:21;;;;;;;29.43;20.67;;;11.80;99.90;;;;;;4997574;28;20181;-91
2022/04/16 06:10:47;;;;;;;28.90;20.23;;;11.90;99.90;;;;;;4996033;28;20267;-91
2022/04/16 06:13:14;;;;;;;30.20;20.17;;;11.90;99.90;;;;;;4984544;28;20288;-91
2022/04/16 06:15:41;;;;;;;30.57;20.80;;;12.10;99.90;;;;;;4978050;28;20174;-91
2022/04/16 06:18:08;;;;;;;28.23;20.30;;;12.20;99.90;;;;;;4977832;28;20186;-91
2022/04/16 06:20:35;;;;;;;29.43;20.47;;;12.30;99.90;;;;;;4988673;28;20247;-91
2022/04/16 06:23:01;;;;;;;33.63;20.50;;;12.30;99.90;;;;;;4988387;28;20220;-90
2022/04/16 06:25:27;;;;;;;29.83;20.10;;;12.50;99.90;;;;;;4977584;28;20206;-91
2022/04/16 06:27:53;;;;;;;28.97;20.77;;;12.40;99.90;;;;;;4977748;28;20170;-90
2022/04/16 06:30:20;;;;;;;29.30;21.30;;;12.30;99.90;;;;;;4977616;28;20185;-91
2022/04/16 06:32:46;;;;;;;30.07;22.83;;;12.30;99.90;;;;;;4977900;28;20201;-91
2022/04/16 06:35:12;;;;;;;29.40;20.90;;;12.50;99.90;;;;;;4985325;28;20180;-90
2022/04/16 06:37:40;;;;;;;31.57;21.30;;;12.50;99.90;;;;;;4997231;28;20181;-91
2022/04/16 06:40:06;;;;;;;27.70;20.53;;;12.70;99.90;;;;;;4996789;28;20441;-91
2022/04/16 06:42:33;;;;;;;29.17;20.23;;;12.50;99.90;;;;;;4996837;28;20272;-90
2022/04/16 06:44:59;;;;;;;29.13;19.93;;;12.60;99.90;;;;;;4983814;28;20646;-91
2022/04/16 06:47:25;;;;;;;28.80;19.83;;;12.70;99.90;;;;;;4977604;28;20173;-90
2022/04/16 06:49:50;;;;;;;27.60;20.13;;;12.80;99.90;;;;;;4977957;28;20516;-91
2022/04/16 06:52:19;;;;;;;28.50;20.43;;;12.70;99.90;;;;;;4977979;28;20201;-91
2022/04/16 06:54:46;;;;;;;27.40;19.83;;;12.70;99.90;;;;;;4985406;28;20179;-91
2022/04/16 06:57:12;;;;;;;29.23;19.87;;;12.60;99.90;;;;;;4998659;28;20269;-91
2022/04/16 06:59:38;;;;;;;30.73;20.00;;;12.80;99.90;;;;;;4998003;28;20171;-91
2022/04/16 07:02:05;;;;;;;29.67;20.97;;;12.90;99.90;;;;;;5005272;28;20212;-90
2022/04/16 07:04:31;;;;;;;30.30;20.70;;;12.90;99.90;;;;;;5000294;28;20186;-91
2022/04/16 07:06:57;;;;;;;27.33;18.83;;;12.90;99.90;;;;;;4979489;28;20184;-91
2022/04/16 07:09:23;;;;;;;25.97;18.87;;;12.90;99.90;;;;;;4977923;28;20185;-91
2022/04/16 07:11:48;;;;;;;25.17;18.07;;;13.00;99.90;;;;;;4977618;28;20178;-91
2022/04/16 07:14:14;;;;;;;27.30;19.43;;;13.00;99.90;;;;;;4981304;28;20329;-91
2022/04/16 07:16:41;;;;;;;26.60;17.67;;;13.20;99.90;;;;;;4997156;28;20203;-90
2022/04/16 07:19:07;;;;;;;28.10;18.67;;;13.30;99.90;;;;;;4997134;28;20181;-91
2022/04/16 07:21:32;;;;;;;23.67;17.93;;;13.30;99.90;;;;;;4994292;28;20643;-91
2022/04/16 07:23:58;;;;;;;28.07;19.43;;;13.10;99.90;;;;;;4995724;28;20195;-90
2022/04/16 07:26:24;;;;;;;26.80;19.43;;;13.30;99.90;;;;;;4983617;28;20175;-90
2022/04/16 07:28:50;;;;;;;23.97;17.40;;;13.30;99.90;;;;;;4997008;28;20185;-90
2022/04/16 07:31:15;;;;;;;25.53;17.57;;;13.40;99.90;;;;;;4984257;28;20179;-90
2022/04/16 07:33:41;;;;;;;24.40;17.10;;;13.60;99.90;;;;;;4976711;28;20257;-90
2022/04/16 07:36:06;;;;;;;24.50;18.63;;;13.70;99.90;;;;;;4976995;28;20181;-91
2022/04/16 07:38:33;;;;;;;25.80;17.07;;;13.90;99.90;;;;;;4976597;28;20191;-91
2022/04/16 07:40:59;;;;;;;23.93;16.07;;;13.80;99.90;;;;;;4976698;28;20236;-90
2022/04/16 07:43:24;;;;;;;22.50;16.67;;;13.70;99.90;;;;;;4976810;28;20326;-90
2022/04/16 07:45:50;;;;;;;21.57;15.67;;;13.90;99.90;;;;;;4977300;28;20179;-91
2022/04/16 07:48:15;;;;;;;21.87;15.80;;;14.10;99.90;;;;;;4976688;28;20175;-91
2022/04/16 07:50:41;;;;;;;23.57;16.60;;;14.20;99.90;;;;;;4978432;28;20176;-90
2022/04/16 07:53:07;;;;;;;22.83;14.93;;;14.20;99.90;;;;;;4979291;28;20208;-91
2022/04/16 07:55:33;;;;;;;20.50;15.27;;;14.20;99.90;;;;;;4976884;28;20190;-91
2022/04/16 07:58:00;;;;;;;21.73;16.10;;;14.10;99.90;;;;;;4976969;28;20180;-91
2022/04/16 08:00:27;;;;;;;21.23;15.67;;;14.20;99.90;;;;;;4976326;28;20186;-91
2022/04/16 08:02:53;;;;;;;21.27;15.00;;;14.30;99.90;;;;;;4976822;28;20203;-91
2022/04/16 08:05:19;;;;;;;20.63;15.20;;;14.40;99.90;;;;;;4976706;28;20184;-91
2022/04/16 08:07:44;;;;;;;19.17;14.73;;;14.50;99.90;;;;;;4976160;28;20227;-90
2022/04/16 08:10:11;;;;;;;20.97;15.73;;;14.70;99.90;;;;;;4976574;28;20179;-91
2022/04/16 08:12:37;;;;;;;19.73;14.33;;;14.60;99.90;;;;;;4976510;28;20207;-91
2022/04/16 08:15:09;;;;;;;17.57;13.83;;;14.60;99.90;;;;;;4976309;28;20184;-91
2022/04/16 08:17:38;;;;;;;18.83;14.17;;;14.70;99.90;;;;;;4976569;28;20194;-91
2022/04/16 08:20:06;;;;;;;20.40;14.47;;;14.60;99.90;;;;;;4976841;28;20539;-91
2022/04/16 08:22:34;;;;;;;19.67;13.40;;;14.80;99.90;;;;;;4976440;28;20254;-91
2022/04/16 08:27:45;;;;;;;18.00;13.50;;;15.20;99.50;;;;;;4994146;28;20167;-91
2022/04/16 08:30:15;;;;;;;16.17;12.67;;;15.20;99.10;;;;;;4979459;28;20210;-91
2022/04/16 08:32:42;;;;;;;16.37;12.43;;;15.20;99.00;;;;;;4979691;28;20213;-91
2022/04/16 08:35:12;;;;;;;16.10;11.30;;;15.30;98.80;;;;;;4979928;28;20256;-91
2022/04/16 08:37:38;;;;;;;14.50;11.50;;;15.40;98.30;;;;;;4979939;28;20179;-91
2022/04/16 08:40:06;;;;;;;18.40;11.60;;;15.50;97.80;;;;;;4988496;28;20176;-91
2022/04/16 08:42:35;;;;;;;16.43;10.57;;;15.50;97.70;;;;;;4979881;28;20173;-91
2022/04/16 08:45:03;;;;;;;15.17;9.73;;;15.60;96.80;;;;;;4979944;28;20544;-91
2022/04/16 08:47:29;;;;;;;18.97;10.20;;;15.40;96.80;;;;;;4979703;28;20200;-91
2022/04/16 08:49:56;;;;;;;10.60;7.97;;;15.40;96.50;;;;;;4979420;28;20159;-91
2022/04/16 08:52:29;;;;;;;12.67;7.87;;;15.40;96.00;;;;;;4979570;28;20228;-91
2022/04/16 08:54:56;;;;;;;13.80;8.53;;;15.60;95.60;;;;;;4979777;28;20174;-91
2022/04/16 08:57:24;;;;;;;11.07;7.93;;;15.60;95.50;;;;;;4979725;28;20173;-91
2022/04/16 08:59:51;;;;;;;10.37;8.13;;;15.60;95.30;;;;;;4982797;28;20186;-91
2022/04/16 09:02:22;;;;;;;12.87;8.03;;;15.70;95.10;;;;;;4982950;28;20192;-91
2022/04/16 09:04:49;;;;;;;11.13;8.13;;;15.70;95.00;;;;;;4982768;28;20314;-91
2022/04/16 09:07:15;;;;;;;13.07;8.60;;;15.70;94.50;;;;;;4981871;28;20183;-91
2022/04/16 09:09:41;;;;;;;15.80;8.33;;;15.70;94.70;;;;;;4983842;28;20185;-91
2022/04/16 09:12:20;;;;;;;9.40;7.07;;;15.70;94.50;;;;;;4983588;28;20175;-91
2022/04/16 09:14:46;;;;;;;9.90;7.50;;;15.80;94.50;;;;;;5002745;28;20241;-91
2022/04/16 09:17:16;;;;;;;10.40;7.43;;;15.80;94.50;;;;;;5001491;28;20533;-90
2022/04/16 09:19:42;;;;;;;8.43;5.27;;;15.90;94.10;;;;;;5002636;28;20179;-92
2022/04/16 09:22:09;;;;;;;8.10;4.90;;;16.00;93.40;;;;;;5004897;28;20176;-91
2022/04/16 09:24:47;;;;;;;6.20;4.37;;;16.10;92.80;;;;;;5004510;28;20192;-91
2022/04/16 09:27:14;;;;;;;8.27;4.23;;;16.10;92.00;;;;;;4999958;28;20191;-91
2022/04/16 09:29:41;;;;;;;6.13;4.90;;;16.20;91.70;;;;;;4998446;28;20180;-91
2022/04/16 09:32:07;;;;;;;9.13;4.77;;;16.20;91.60;;;;;;4998427;28;20228;-91
2022/04/16 09:34:32;;;;;;;9.33;6.40;;;16.10;91.90;;;;;;4997998;28;20177;-91
2022/04/16 09:37:11;;;;;;;11.50;6.97;;;16.10;92.30;;;;;;4998208;28;20214;-91
2022/04/16 09:39:37;;;;;;;9.80;6.40;;;16.10;92.50;;;;;;4997971;28;20207;-91
2022/04/16 09:42:03;;;;;;;8.43;6.20;;;16.10;92.10;;;;;;4997432;28;20243;-91
2022/04/16 09:44:29;;;;;;;7.53;5.50;;;16.20;92.40;;;;;;4997709;28;20758;-91
2022/04/16 09:46:56;;;;;;;11.00;7.27;;;16.20;92.40;;;;;;4997970;28;20663;-91
2022/04/16 09:49:24;;;;;;;7.00;5.47;;;16.30;92.50;;;;;;4997552;28;20169;-91
2022/04/16 09:51:50;;;;;;;11.30;7.00;;;16.30;91.50;;;;;;4998094;28;20255;-91
2022/04/16 09:54:17;;;;;;;9.83;6.67;;;16.40;91.70;;;;;;4997927;28;20373;-91
2022/04/16 09:56:46;;;;;;;9.97;6.57;;;16.40;91.80;;;;;;4997616;28;20170;-91
2022/04/16 09:59:13;;;;;;;9.37;5.87;;;16.40;91.80;;;;;;4997935;28;20694;-91
2022/04/16 10:01:46;;;;;;;5.80;4.30;;;16.60;91.80;;;;;;4997378;28;20199;-90
2022/04/16 10:04:14;;;;;;;6.87;4.97;;;16.60;90.80;;;;;;4997685;28;20258;-91
2022/04/16 10:06:41;;;;;;;7.07;5.07;;;16.60;91.20;;;;;;4997625;28;20264;-91
2022/04/16 10:09:13;;;;;;;7.20;4.90;;;16.60;91.20;;;;;;4997751;28;20157;-91
2022/04/16 10:14:50;;;;;;;7.43;5.33;;;16.70;90.20;;;;;;5014616;28;20604;-91
2022/04/16 10:17:42;;;;;;;7.33;4.77;;;16.70;90.60;;;;;;4997019;28;20250;-90
2022/04/16 10:20:11;;;;;;;7.03;4.73;;;16.70;90.50;;;;;;4991568;28;20170;-91
2022/04/16 10:22:37;;;;;;;6.10;4.23;;;16.80;90.50;;;;;;4977829;28;20174;-91
2022/04/16 10:25:04;;;;;;;6.47;3.87;;;16.80;90.00;;;;;;4977885;28;20254;-91
2022/04/16 10:27:32;;;;;;;6.07;4.20;;;16.90;89.50;;;;;;4977796;28;20181;-91
2022/04/16 10:30:02;;;;;;;7.67;5.60;;;16.90;89.80;;;;;;4977757;28;20170;-91
2022/04/16 10:32:43;;;;;;;7.60;5.00;;;17.00;90.10;;;;;;4977297;28;20712;-91
2022/04/16 10:35:17;;;;;;;7.10;5.20;;;17.00;90.00;;;;;;4977628;28;20170;-91
2022/04/16 10:37:50;;;;;;;12.83;6.03;;;17.00;89.10;;;;;;4996115;28;20184;-91
2022/04/16 10:40:24;;;;;;;9.50;6.43;;;17.10;90.10;;;;;;4997187;28;20176;-92
2022/04/16 10:43:08;;;;;;;8.83;6.53;;;17.10;90.30;;;;;;4997722;28;20377;-91
2022/04/16 10:45:36;;;;;;;7.80;5.73;;;17.00;90.60;;;;;;4996764;28;20647;-91
2022/04/16 10:48:03;;;;;;;7.73;5.03;;;17.20;90.10;;;;;;4997114;28;20201;-91
2022/04/16 10:50:31;;;;;;;14.90;6.23;;;17.30;89.60;;;;;;4997279;28;20169;-91
2022/04/16 10:53:00;;;;;;;8.73;5.80;;;17.30;90.00;;;;;;4981306;28;20197;-91
2022/04/16 10:55:36;;;;;;;11.53;6.67;;;17.40;89.70;;;;;;4977538;28;20162;-91
2022/04/16 10:58:06;;;;;;;10.33;6.10;;;17.50;89.20;;;;;;4977315;28;20174;-90
2022/04/16 11:00:41;;;;;;;10.53;6.13;;;17.50;88.20;;;;;;4977680;28;20170;-91
2022/04/16 11:03:17;;;;;;;7.60;5.17;;;17.60;88.10;;;;;;4977517;28;20217;-91
2022/04/16 11:05:44;;;;;;;7.53;5.80;;;17.80;87.80;;;;;;4978702;28;20166;-91
2022/04/16 11:08:14;;;;;;;7.77;4.87;;;18.30;86.50;;;;;;4979010;28;20220;-91
2022/04/16 11:10:41;;;;;;;7.00;4.47;;;19.20;84.40;;;;;;4981809;28;20175;-91
2022/04/16 11:13:07;;;;;;;6.50;4.70;;;20.40;82.80;;;;;;4988651;28;20196;-91
2022/04/16 11:15:33;;;;;;;5.63;4.60;;;21.50;79.70;;;;;;4985821;28;20232;-91
2022/04/16 11:18:00;;;;;;;9.87;4.77;;;22.70;76.60;;;;;;4987452;28;20638;-91
2022/04/16 11:20:27;;;;;;;8.53;4.77;;;23.70;73.50;;;;;;4997610;28;20170;-91
2022/04/16 11:22:54;;;;;;;6.30;4.80;;;24.70;71.70;;;;;;4986358;28;20173;-91
2022/04/16 11:25:24;;;;;;;6.87;4.67;;;25.80;69.40;;;;;;4978016;28;20193;-91
2022/04/16 11:36:09;;;;;;;5.03;4.50;;;28.40;60.20;;;;;;4994625;28;20546;-91
2022/04/16 11:38:36;;;;;;;7.20;4.93;;;28.60;59.50;;;;;;4978309;28;20174;-91
2022/04/16 11:41:08;;;;;;;5.70;4.50;;;29.20;58.30;;;;;;4996279;28;20165;-92
2022/04/16 11:43:38;;;;;;;6.28;5.30;;;29.80;56.50;;;;;;4996074;28;20169;-91
2022/04/16 11:46:12;;;;;;;5.97;5.15;;;30.00;56.30;;;;;;4996410;28;20249;-91
2022/04/16 11:48:42;;;;;;;4.78;4.35;;;30.70;55.60;;;;;;4984522;28;20170;-91
2022/04/16 11:51:11;;;;;;;5.55;5.03;;;31.00;54.60;;;;;;4976913;28;20170;-91
2022/04/16 11:53:44;;;;;;;5.60;5.10;;;31.60;53.30;;;;;;4976479;28;20268;-92
2022/04/16 11:56:10;;;;;;;5.22;4.53;;;31.80;52.90;;;;;;4977039;28;20601;-92
2022/04/16 11:58:35;;;;;;;5.45;4.43;;;32.00;52.70;;;;;;4977017;28;20213;-91
2022/04/16 12:01:03;;;;;;;5.15;4.65;;;32.30;51.60;;;;;;4976956;28;20260;-91
2022/04/16 12:03:40;;;;;;;5.63;5.00;;;32.60;50.80;;;;;;4976983;28;20176;-91
2022/04/16 12:06:10;;;;;;;7.20;4.78;;;32.70;50.10;;;;;;4980415;28;20181;-92
2022/04/16 12:08:36;;;;;;;8.18;5.60;;;33.10;50.70;;;;;;4980228;28;20248;-91
2022/04/16 12:11:03;;;;;;;6.68;5.40;;;33.30;50.30;;;;;;4980108;28;20581;-92
2022/04/16 12:13:37;;;;;;;5.75;4.72;;;33.50;49.20;;;;;;4979990;28;20268;-91
2022/04/16 12:16:04;;;;;;;5.15;4.65;;;33.70;49.20;;;;;;4980190;28;20161;-91
2022/04/16 12:18:39;;;;;;;5.30;4.80;;;33.70;48.40;;;;;;4980245;28;20184;-91
2022/04/16 12:21:08;;;;;;;7.10;5.50;;;33.80;48.40;;;;;;4980102;28;20208;-91
2022/04/16 12:23:37;;;;;;;6.13;5.53;;;34.00;48.00;;;;;;4979757;28;20174;-91
2022/04/16 12:26:09;;;;;;;6.65;6.03;;;34.10;48.00;;;;;;4982052;28;20166;-92
2022/04/16 12:28:48;;;;;;;5.78;5.22;;;34.60;47.40;;;;;;4981745;28;20232;-91
2022/04/16 12:31:25;;;;;;;5.05;4.65;;;34.40;47.00;;;;;;4979997;28;20181;-91
2022/04/16 12:33:51;;;;;;;5.28;4.78;;;34.40;47.00;;;;;;4979534;28;20236;-90
2022/04/16 12:36:16;;;;;;;5.68;5.15;;;33.70;47.30;;;;;;4979873;28;20201;-90
2022/04/16 12:38:42;;;;;;;5.78;5.22;;;33.30;47.80;;;;;;4980175;28;20192;-91
2022/04/16 12:41:10;;;;;;;5.88;4.93;;;33.70;47.80;;;;;;4980084;28;20162;-91
2022/04/16 12:43:36;;;;;;;5.40;4.80;;;34.10;47.80;;;;;;4979259;28;20174;-91
2022/04/16 12:46:02;;;;;;;6.00;5.40;;;34.20;48.10;;;;;;4979666;28;20205;-91
2022/04/16 12:48:28;;;;;;;6.20;5.60;;;34.70;46.80;;;;;;4979686;28;20193;-91
2022/04/16 12:50:54;;;;;;;8.10;5.22;;;35.10;46.30;;;;;;4979551;28;20166;-91
2022/04/16 12:53:20;;;;;;;6.20;5.60;;;35.00;46.50;;;;;;4980052;28;20209;-90
2022/04/16 12:55:45;;;;;;;6.55;5.47;;;35.30;46.30;;;;;;4979556;28;20173;-91
2022/04/16 12:58:12;;;;;;;5.63;5.03;;;35.50;46.00;;;;;;4979776;28;20614;-91
2022/04/16 13:00:38;;;;;;;5.90;5.28;;;35.90;45.50;;;;;;4979169;28;20182;-90
2022/04/16 13:03:04;;;;;;;6.43;5.60;;;36.00;45.50;;;;;;4979262;28;20639;-91